createdAt,value
2022-11-27T00:01:40.096Z,2.17
2022-11-27T00:04:12.030Z,2.24
2022-11-27T00:06:43.140Z,2.32
2022-11-27T00:09:16.486Z,2.41
2022-11-27T00:11:46.028Z,2.07
2022-11-27T00:14:17.507Z,1.96
2022-11-27T00:16:46.542Z,2.10
2022-11-27T00:19:15.120Z,2.11
2022-11-27T00:21:45.147Z,2.26
2022-11-27T00:24:13.744Z,1.94
2022-11-27T00:26:42.423Z,1.95
2022-11-27T00:29:11.290Z,2.00
2022-11-27T00:31:39.892Z,2.19
2022-11-27T00:34:09.870Z,2.14
2022-11-27T00:36:41.104Z,2.16
2022-11-27T00:39:31.148Z,2.40
2022-11-27T00:42:00.598Z,2.49
2022-11-27T00:44:29.385Z,2.33
2022-11-27T00:46:57.953Z,2.35
2022-11-27T00:49:26.672Z,2.32
2022-11-27T00:51:55.152Z,2.14
2022-11-27T00:54:23.653Z,2.15
2022-11-27T00:56:53.488Z,2.16
2022-11-27T00:59:22.178Z,2.27
2022-11-27T01:01:51.424Z,2.34
2022-11-27T01:04:19.926Z,2.34
2022-11-27T01:06:48.688Z,2.46
2022-11-27T01:09:17.550Z,2.27
2022-11-27T01:11:46.128Z,2.41
2022-11-27T01:14:19.838Z,2.62
2022-11-27T01:16:48.335Z,2.84
2022-11-27T01:19:17.044Z,2.86
2022-11-27T01:21:46.206Z,2.81
2022-11-27T01:24:16.915Z,2.91
2022-11-27T01:26:46.098Z,2.98
2022-11-27T01:29:16.221Z,3.06
2022-11-27T01:31:45.002Z,3.10
2022-11-27T01:34:18.285Z,3.07
2022-11-27T01:36:47.001Z,3.15
2022-11-27T01:39:18.991Z,3.00
2022-11-27T01:41:49.733Z,3.07
2022-11-27T01:44:56.331Z,2.96
2022-11-27T01:47:44.012Z,3.03
2022-11-27T01:50:20.017Z,3.11
2022-11-27T01:52:53.962Z,3.22
2022-11-27T01:55:33.685Z,3.17
2022-11-27T01:58:13.127Z,3.28
2022-11-27T02:00:43.252Z,3.18
2022-11-27T02:03:12.265Z,3.34
2022-11-27T02:05:40.922Z,3.33
2022-11-27T02:08:14.354Z,3.29
2022-11-27T02:10:51.518Z,3.45
2022-11-27T02:13:30.364Z,3.53
2022-11-27T02:16:17.807Z,3.57
2022-11-27T02:18:58.184Z,3.69
2022-11-27T02:21:38.166Z,3.57
2022-11-27T02:24:45.977Z,3.64
2022-11-27T02:27:44.732Z,3.61
2022-11-27T02:30:15.476Z,3.62
2022-11-27T02:32:53.360Z,3.67
2022-11-27T02:35:32.932Z,3.72
2022-11-27T02:38:09.479Z,3.64
2022-11-27T02:40:46.161Z,3.76
2022-11-27T02:43:21.208Z,3.60
2022-11-27T02:45:53.867Z,3.55
2022-11-27T02:48:28.138Z,3.68
2022-11-27T02:50:57.241Z,3.76
2022-11-27T02:53:32.764Z,3.70
2022-11-27T02:56:04.569Z,3.58
2022-11-27T02:58:36.380Z,3.42
2022-11-27T03:01:08.783Z,3.39
2022-11-27T03:03:44.057Z,3.52
2022-11-27T03:06:20.193Z,3.72
2022-11-27T03:08:55.561Z,3.65
2022-11-27T03:11:24.749Z,3.60
2022-11-27T03:13:58.951Z,3.39
2022-11-27T03:16:38.946Z,3.56
2022-11-27T03:19:18.255Z,3.33
2022-11-27T03:21:53.276Z,3.49
2022-11-27T03:24:22.071Z,3.52
2022-11-27T03:26:51.545Z,3.52
2022-11-27T03:29:26.633Z,3.60
2022-11-27T03:31:57.969Z,3.62
2022-11-27T03:34:29.123Z,3.64
2022-11-27T03:36:57.672Z,3.62
2022-11-27T03:39:27.403Z,3.55
2022-11-27T03:42:10.280Z,3.67
2022-11-27T03:44:47.813Z,3.47
2022-11-27T03:47:37.660Z,3.55
2022-11-27T03:50:21.604Z,3.45
2022-11-27T03:53:02.983Z,3.27
2022-11-27T03:55:42.363Z,3.35
2022-11-27T03:58:20.369Z,3.48
2022-11-27T04:00:52.684Z,3.36
2022-11-27T04:03:29.056Z,3.41
2022-11-27T04:05:58.485Z,3.46
2022-11-27T04:08:27.200Z,3.58
2022-11-27T04:10:55.878Z,3.45
2022-11-27T04:13:24.618Z,3.45
2022-11-27T04:15:53.223Z,3.52
2022-11-27T04:18:21.731Z,3.60
2022-11-27T04:20:51.988Z,3.55
2022-11-27T04:23:20.614Z,3.59
2022-11-27T04:25:50.278Z,3.62
2022-11-27T04:28:19.178Z,3.53
2022-11-27T04:30:54.041Z,3.58
2022-11-27T04:33:23.351Z,3.62
2022-11-27T04:35:53.942Z,3.72
2022-11-27T04:38:23.491Z,3.88
2022-11-27T04:40:53.747Z,3.99
2022-11-27T04:43:22.540Z,4.06
2022-11-27T04:45:51.160Z,4.12
2022-11-27T04:48:19.849Z,4.17
2022-11-27T04:50:48.360Z,4.10
2022-11-27T04:53:18.248Z,4.14
2022-11-27T04:55:46.841Z,4.19
2022-11-27T04:58:15.417Z,4.24
2022-11-27T05:00:43.974Z,4.24
2022-11-27T05:03:12.656Z,4.27
2022-11-27T05:05:41.205Z,4.35
2022-11-27T05:08:09.736Z,4.41
2022-11-27T05:10:39.770Z,4.33
2022-11-27T05:13:08.516Z,4.22
2022-11-27T05:15:37.137Z,4.33
2022-11-27T05:18:06.078Z,4.31
2022-11-27T05:20:34.547Z,4.32
2022-11-27T05:23:03.244Z,4.32
2022-11-27T05:25:32.014Z,4.21
2022-11-27T05:28:01.976Z,4.21
2022-11-27T05:30:30.494Z,4.14
2022-11-27T05:32:58.937Z,4.08
2022-11-27T05:35:27.752Z,4.04
2022-11-27T05:37:56.228Z,3.86
2022-11-27T05:40:24.729Z,3.36
2022-11-27T05:42:53.309Z,3.60
2022-11-27T05:45:23.237Z,3.60
2022-11-27T05:47:51.691Z,3.54
2022-11-27T05:50:20.292Z,3.66
2022-11-27T05:52:48.912Z,3.57
2022-11-27T05:55:17.638Z,3.62
2022-11-27T05:57:46.215Z,3.68
2022-11-27T06:00:16.608Z,3.56
2022-11-27T06:02:46.601Z,3.51
2022-11-27T06:05:15.437Z,3.66
2022-11-27T06:07:43.949Z,3.72
2022-11-27T06:10:12.914Z,3.75
2022-11-27T06:12:41.404Z,3.79
2022-11-27T06:15:10.812Z,4.00
2022-11-27T06:17:39.456Z,3.57
2022-11-27T06:20:10.790Z,3.98
2022-11-27T06:22:39.453Z,3.88
2022-11-27T06:25:08.773Z,3.81
2022-11-27T06:27:38.148Z,4.11
2022-11-27T06:30:08.508Z,4.07
2022-11-27T06:32:37.016Z,4.18
2022-11-27T06:35:06.885Z,4.20
2022-11-27T06:37:37.024Z,4.36
2022-11-27T06:40:07.814Z,4.45
2022-11-27T06:42:36.468Z,4.34
2022-11-27T06:45:06.076Z,4.14
2022-11-27T06:47:34.527Z,4.11
2022-11-27T06:50:03.265Z,4.29
2022-11-27T06:52:34.665Z,4.31
2022-11-27T06:55:09.519Z,4.45
2022-11-27T06:57:38.057Z,4.50
2022-11-27T07:00:08.786Z,4.50
2022-11-27T07:02:37.470Z,4.53
2022-11-27T07:05:06.430Z,4.35
2022-11-27T07:07:36.754Z,4.40
2022-11-27T07:10:11.028Z,4.16
2022-11-27T07:12:39.600Z,4.23
2022-11-27T07:15:10.232Z,4.34
2022-11-27T07:17:39.227Z,4.30
2022-11-27T07:20:09.627Z,4.30
2022-11-27T07:22:38.219Z,4.16
2022-11-27T07:25:09.690Z,4.28
2022-11-27T07:27:38.388Z,4.11
2022-11-27T07:30:08.779Z,4.32
2022-11-27T07:32:37.614Z,4.31
2022-11-27T07:35:07.296Z,4.31
2022-11-27T07:37:36.618Z,4.48
2022-11-27T07:40:06.620Z,4.35
2022-11-27T07:42:43.989Z,4.22
2022-11-27T07:45:13.740Z,4.23
2022-11-27T07:47:42.651Z,4.42
2022-11-27T07:50:13.643Z,4.52
2022-11-27T07:52:42.483Z,4.36
2022-11-27T07:55:11.644Z,4.51
2022-11-27T07:57:42.897Z,4.71
2022-11-27T08:00:12.867Z,4.85
2022-11-27T08:02:41.548Z,5.05
2022-11-27T08:05:13.032Z,5.21
2022-11-27T08:07:42.301Z,5.35
2022-11-27T08:10:11.524Z,5.33
2022-11-27T08:12:41.550Z,5.49
2022-11-27T08:15:12.057Z,5.44
2022-11-27T08:17:41.026Z,5.47
2022-11-27T08:20:10.615Z,5.57
2022-11-27T08:22:41.650Z,5.60
2022-11-27T08:25:10.881Z,5.59
2022-11-27T08:27:40.934Z,5.63
2022-11-27T08:30:11.255Z,5.70
2022-11-27T08:32:41.081Z,5.70
2022-11-27T08:35:11.946Z,5.76
2022-11-27T08:37:40.737Z,5.77
2022-11-27T08:40:10.872Z,5.79
2022-11-27T08:42:39.552Z,5.93
2022-11-27T08:45:11.059Z,5.91
2022-11-27T08:47:39.615Z,5.92
2022-11-27T08:50:10.150Z,6.01
2022-11-27T08:52:38.810Z,5.97
2022-11-27T08:55:09.270Z,5.90
2022-11-27T08:57:37.943Z,5.98
2022-11-27T09:00:10.259Z,6.10
2022-11-27T09:02:39.287Z,6.14
2022-11-27T09:05:09.232Z,6.10
2022-11-27T09:07:37.790Z,6.14
2022-11-27T09:10:08.235Z,6.23
2022-11-27T09:12:41.934Z,6.16
2022-11-27T09:15:14.315Z,6.02
2022-11-27T09:17:43.544Z,6.08
2022-11-27T09:20:15.983Z,5.92
2022-11-27T09:22:45.021Z,5.95
2022-11-27T09:25:13.687Z,5.81
2022-11-27T09:27:42.282Z,5.90
2022-11-27T09:30:13.920Z,5.92
2022-11-27T09:32:42.608Z,5.87
2022-11-27T09:35:11.386Z,5.81
2022-11-27T09:37:39.961Z,5.74
2022-11-27T09:40:14.905Z,5.80
2022-11-27T09:42:53.307Z,5.86
2022-11-27T09:45:26.273Z,5.55
2022-11-27T09:47:59.943Z,5.72
2022-11-27T09:50:35.253Z,5.90
2022-11-27T09:53:18.207Z,5.93
2022-11-27T09:55:53.593Z,6.12
2022-11-27T09:58:39.690Z,5.97
2022-11-27T10:01:15.155Z,5.84
2022-11-27T10:03:46.057Z,5.84
2022-11-27T10:06:44.177Z,5.88
2022-11-27T10:09:59.991Z,5.97
2022-11-27T10:12:53.011Z,5.76
2022-11-27T10:15:45.326Z,5.90
2022-11-27T10:18:29.887Z,5.92
2022-11-27T10:21:08.645Z,6.03
2022-11-27T10:23:49.625Z,5.83
2022-11-27T10:26:26.351Z,5.70
2022-11-27T10:29:08.976Z,5.80
2022-11-27T10:31:48.627Z,5.84
2022-11-27T10:34:32.436Z,5.92
2022-11-27T10:37:10.179Z,5.39
2022-11-27T10:39:48.984Z,5.85
2022-11-27T10:42:29.912Z,5.66
2022-11-27T10:45:04.805Z,5.94
2022-11-27T10:47:34.481Z,6.07
2022-11-27T10:50:11.098Z,6.07
2022-11-27T10:52:52.767Z,6.07
2022-11-27T10:55:38.934Z,6.15
2022-11-27T10:58:18.408Z,6.29
2022-11-27T11:00:51.248Z,6.18
2022-11-27T11:03:22.980Z,6.04
2022-11-27T11:06:19.960Z,6.16
2022-11-27T11:08:50.526Z,6.33
2022-11-27T11:11:28.112Z,6.37
2022-11-27T11:13:56.950Z,6.24
2022-11-27T11:16:34.787Z,6.27
2022-11-27T11:19:06.167Z,6.21
2022-11-27T11:21:42.343Z,6.07
2022-11-27T11:24:19.763Z,5.88
2022-11-27T11:26:52.337Z,6.02
2022-11-27T11:29:32.211Z,6.09
2022-11-27T11:32:11.489Z,5.95
2022-11-27T11:34:45.237Z,5.91
2022-11-27T11:37:26.987Z,6.28
2022-11-27T11:40:00.745Z,6.11
2022-11-27T11:42:32.823Z,6.04
2022-11-27T11:45:14.353Z,6.17
2022-11-27T11:47:47.897Z,6.02
2022-11-27T11:50:29.432Z,6.22
2022-11-27T11:53:05.827Z,6.12
2022-11-27T11:55:47.649Z,6.27
2022-11-27T11:58:46.589Z,6.16
2022-11-27T12:01:46.526Z,6.32
2022-11-27T12:04:48.784Z,6.41
2022-11-27T12:07:34.766Z,6.18
2022-11-27T12:10:14.455Z,6.38
2022-11-27T12:12:58.422Z,6.40
2022-11-27T12:15:37.438Z,6.21
2022-11-27T12:18:19.917Z,6.06
2022-11-27T12:21:07.687Z,6.09
2022-11-27T12:24:03.554Z,6.08
2022-11-27T12:26:50.190Z,5.89
2022-11-27T12:30:00.184Z,5.88
2022-11-27T12:32:57.275Z,5.97
2022-11-27T12:35:34.851Z,6.32
2022-11-27T12:38:24.075Z,6.34
2022-11-27T12:41:22.518Z,5.88
2022-11-27T12:44:00.394Z,6.11
2022-11-27T12:46:42.669Z,6.18
2022-11-27T12:49:21.512Z,6.10
2022-11-27T12:51:57.408Z,6.15
2022-11-27T12:54:33.694Z,6.12
2022-11-27T12:57:11.594Z,5.94
2022-11-27T12:59:51.666Z,5.89
2022-11-27T13:02:35.195Z,6.09
2022-11-27T13:05:08.604Z,6.12
2022-11-27T13:07:48.530Z,6.09
2022-11-27T13:10:28.169Z,6.18
2022-11-27T13:13:08.041Z,6.12
2022-11-27T13:15:52.297Z,6.19
2022-11-27T13:18:31.577Z,6.24
2022-11-27T13:21:05.108Z,6.29
2022-11-27T13:23:35.498Z,6.07
2022-11-27T13:26:12.849Z,6.03
2022-11-27T13:28:45.480Z,6.08
2022-11-27T13:31:25.111Z,5.79
2022-11-27T13:34:01.911Z,5.86
2022-11-27T13:36:39.963Z,5.89
2022-11-27T13:39:26.945Z,5.81
2022-11-27T13:42:07.256Z,5.87
2022-11-27T13:44:43.504Z,5.79
2022-11-27T13:47:26.698Z,5.95
2022-11-27T13:50:03.258Z,5.76
2022-11-27T13:52:32.483Z,5.69
2022-11-27T13:55:03.913Z,5.76
2022-11-27T13:57:35.288Z,5.81
2022-11-27T14:00:09.674Z,5.70
2022-11-27T14:02:49.262Z,5.75
2022-11-27T14:05:21.172Z,5.69
2022-11-27T14:07:55.431Z,5.77
2022-11-27T14:10:28.496Z,5.55
2022-11-27T14:13:01.948Z,5.63
2022-11-27T14:15:36.486Z,5.86
2022-11-27T14:18:20.478Z,5.48
2022-11-27T14:20:53.605Z,5.49
2022-11-27T14:23:30.098Z,5.31
2022-11-27T14:26:21.272Z,5.65
2022-11-27T14:28:53.701Z,5.70
2022-11-27T14:31:33.480Z,5.83
2022-11-27T14:34:23.423Z,5.98
2022-11-27T14:36:54.160Z,5.81
2022-11-27T14:39:25.796Z,5.94
2022-11-27T14:42:02.336Z,5.89
2022-11-27T14:44:31.866Z,5.85
2022-11-27T14:47:04.902Z,5.79
2022-11-27T14:49:35.570Z,5.69
2022-11-27T14:52:14.504Z,5.61
2022-11-27T14:54:45.668Z,5.59
2022-11-27T14:57:23.655Z,5.54
2022-11-27T15:00:05.847Z,5.54
2022-11-27T15:02:34.888Z,5.62
2022-11-27T15:05:07.405Z,5.56
2022-11-27T15:07:44.256Z,5.60
2022-11-27T15:10:33.488Z,5.55
2022-11-27T15:13:08.436Z,5.55
2022-11-27T15:15:48.198Z,5.53
2022-11-27T15:18:24.191Z,5.46
2022-11-27T15:20:59.238Z,5.50
2022-11-27T15:23:30.373Z,5.46
2022-11-27T15:26:16.001Z,5.33
2022-11-27T15:28:54.209Z,5.38
2022-11-27T15:31:33.850Z,5.41
2022-11-27T15:34:22.277Z,5.51
2022-11-27T15:36:58.876Z,5.40
2022-11-27T15:39:37.766Z,5.38
2022-11-27T15:42:11.697Z,5.38
2022-11-27T15:44:40.886Z,5.37
2022-11-27T15:47:25.443Z,5.21
2022-11-27T15:49:56.278Z,5.29
2022-11-27T15:52:27.974Z,5.25
2022-11-27T15:54:56.667Z,5.26
2022-11-27T15:57:28.372Z,5.12
2022-11-27T15:59:56.904Z,5.13
2022-11-27T16:02:28.362Z,5.09
2022-11-27T16:04:57.123Z,4.96
2022-11-27T16:07:29.253Z,4.86
2022-11-27T16:09:58.065Z,4.88
2022-11-27T16:12:31.805Z,4.88
2022-11-27T16:15:00.342Z,4.87
2022-11-27T16:17:29.028Z,5.01
2022-11-27T16:20:16.208Z,5.05
2022-11-27T16:22:46.296Z,4.85
2022-11-27T16:25:18.562Z,4.66
2022-11-27T16:27:58.008Z,4.73
2022-11-27T16:30:32.974Z,4.59
2022-11-27T16:33:07.744Z,4.56
2022-11-27T16:35:38.016Z,4.59
2022-11-27T16:38:09.417Z,4.68
2022-11-27T16:40:38.232Z,4.65
2022-11-27T16:43:07.308Z,4.62
2022-11-27T16:45:37.951Z,4.77
2022-11-27T16:48:07.181Z,4.79
2022-11-27T16:50:36.036Z,4.83
2022-11-27T16:53:11.874Z,4.89
2022-11-27T16:55:40.446Z,4.85
2022-11-27T16:58:09.086Z,4.90
2022-11-27T17:00:38.514Z,4.86
2022-11-27T17:03:07.253Z,4.87
2022-11-27T17:05:39.728Z,4.73
2022-11-27T17:08:10.069Z,4.77
2022-11-27T17:10:38.649Z,4.84
2022-11-27T17:13:07.271Z,4.89
2022-11-27T17:15:40.564Z,4.88
2022-11-27T17:18:11.013Z,4.99
2022-11-27T17:20:40.258Z,4.92
2022-11-27T17:23:10.496Z,4.74
2022-11-27T17:25:39.874Z,4.89
2022-11-27T17:28:08.731Z,4.78
2022-11-27T17:30:39.678Z,4.75
2022-11-27T17:33:08.772Z,4.69
2022-11-27T17:35:37.298Z,4.71
2022-11-27T17:38:05.928Z,4.72
2022-11-27T17:40:35.979Z,4.92
2022-11-27T17:43:07.190Z,4.91
2022-11-27T17:45:36.750Z,4.98
2022-11-27T17:48:11.905Z,5.01
2022-11-27T17:50:40.961Z,5.03
2022-11-27T17:53:10.390Z,5.07
2022-11-27T17:55:42.127Z,5.03
2022-11-27T17:58:10.865Z,4.95
2022-11-27T18:00:41.010Z,4.87
2022-11-27T18:03:11.193Z,4.96
2022-11-27T18:05:43.934Z,4.86
2022-11-27T18:08:12.723Z,4.90
2022-11-27T18:10:42.838Z,4.95
2022-11-27T18:13:11.472Z,4.72
2022-11-27T18:15:44.140Z,4.82
2022-11-27T18:18:12.730Z,4.85
2022-11-27T18:20:41.407Z,4.91
2022-11-27T18:23:12.283Z,5.06
2022-11-27T18:25:48.869Z,4.96
2022-11-27T18:28:20.853Z,4.99
2022-11-27T18:30:49.454Z,5.01
2022-11-27T18:33:18.310Z,4.99
2022-11-27T18:35:46.937Z,5.02
2022-11-27T18:38:16.003Z,5.03
2022-11-27T18:40:46.441Z,5.13
2022-11-27T18:43:15.270Z,5.12
2022-11-27T18:45:48.017Z,5.23
2022-11-27T18:48:17.836Z,5.10
2022-11-27T18:50:48.341Z,5.16
2022-11-27T18:53:17.410Z,5.23
2022-11-27T18:55:52.560Z,5.18
2022-11-27T18:58:21.465Z,5.07
2022-11-27T19:00:50.145Z,4.92
2022-11-27T19:03:18.759Z,4.90
2022-11-27T19:05:47.976Z,4.94
2022-11-27T19:08:16.756Z,4.79
2022-11-27T19:10:49.504Z,4.88
2022-11-27T19:13:21.795Z,4.86
2022-11-27T19:15:51.059Z,4.87
2022-11-27T19:18:22.704Z,4.87
2022-11-27T19:20:52.479Z,4.88
2022-11-27T19:23:23.353Z,4.94
2022-11-27T19:25:53.383Z,4.85
2022-11-27T19:28:23.843Z,4.84
2022-11-27T19:30:53.410Z,4.89
2022-11-27T19:33:22.865Z,4.99
2022-11-27T19:35:52.364Z,4.96
2022-11-27T19:38:21.241Z,5.06
2022-11-27T19:40:50.107Z,5.02
2022-11-27T19:43:20.409Z,5.02
2022-11-27T19:45:52.599Z,4.99
2022-11-27T19:48:23.494Z,5.12
2022-11-27T19:50:53.209Z,5.06
2022-11-27T19:53:22.959Z,5.11
2022-11-27T19:55:55.735Z,5.00
2022-11-27T19:58:27.406Z,5.03
2022-11-27T20:00:56.239Z,5.01
2022-11-27T20:03:25.046Z,5.06
2022-11-27T20:06:04.479Z,4.97
2022-11-27T20:08:36.805Z,4.97
2022-11-27T20:11:07.910Z,5.02
2022-11-27T20:13:40.219Z,5.12
2022-11-27T20:16:10.451Z,5.19
2022-11-27T20:18:40.591Z,5.01
2022-11-27T20:21:12.224Z,4.85
2022-11-27T20:23:41.461Z,4.89
2022-11-27T20:26:13.723Z,4.98
2022-11-27T20:28:44.629Z,4.89
2022-11-27T20:31:17.491Z,4.87
2022-11-27T20:33:46.878Z,4.92
2022-11-27T20:36:20.566Z,5.01
2022-11-27T20:38:58.530Z,5.06
2022-11-27T20:41:34.161Z,4.97
2022-11-27T20:44:05.586Z,4.98
2022-11-27T20:46:35.126Z,5.09
2022-11-27T20:49:04.297Z,5.08
2022-11-27T20:51:36.630Z,5.15
2022-11-27T20:54:11.704Z,5.03
2022-11-27T20:56:43.152Z,4.98
2022-11-27T20:59:14.313Z,4.86
2022-11-27T21:01:45.793Z,4.99
2022-11-27T21:04:23.529Z,5.04
2022-11-27T21:06:54.153Z,4.94
2022-11-27T21:09:23.106Z,5.03
2022-11-27T21:11:52.368Z,4.99
2022-11-27T21:14:22.611Z,5.19
2022-11-27T21:16:52.188Z,5.13
2022-11-27T21:19:25.297Z,5.00
2022-11-27T21:21:56.332Z,5.02
2022-11-27T21:24:28.499Z,4.90
2022-11-27T21:26:57.779Z,4.91
2022-11-27T21:29:28.470Z,4.96
2022-11-27T21:31:57.667Z,5.07
2022-11-27T21:34:27.152Z,4.97
2022-11-27T21:36:56.498Z,5.15
2022-11-27T21:39:25.697Z,5.25
2022-11-27T21:41:56.847Z,5.13
2022-11-27T21:44:27.874Z,5.21
2022-11-27T21:46:59.892Z,5.23
2022-11-27T21:49:30.567Z,5.08
2022-11-27T21:52:00.805Z,4.92
2022-11-27T21:54:34.478Z,5.00
2022-11-27T21:57:03.138Z,5.02
2022-11-27T21:59:33.297Z,4.92
2022-11-27T22:02:01.961Z,4.80
2022-11-27T22:04:30.701Z,4.76
2022-11-27T22:06:59.384Z,4.81
2022-11-27T22:09:30.222Z,4.85
2022-11-27T22:11:58.742Z,4.87
2022-11-27T22:14:27.381Z,4.98
2022-11-27T22:16:57.369Z,4.98
2022-11-27T22:19:26.036Z,4.93
2022-11-27T22:21:54.522Z,4.96
2022-11-27T22:24:23.050Z,5.04
2022-11-27T22:26:54.053Z,4.97
2022-11-27T22:29:22.682Z,5.01
2022-11-27T22:31:53.387Z,4.99
2022-11-27T22:34:23.639Z,4.97
2022-11-27T22:36:52.610Z,4.98
2022-11-27T22:39:21.449Z,4.86
2022-11-27T22:41:50.346Z,4.84
2022-11-27T22:44:20.913Z,4.88
2022-11-27T22:46:50.803Z,4.93
2022-11-27T22:49:20.038Z,4.98
2022-11-27T22:51:50.099Z,4.86
2022-11-27T22:54:19.452Z,4.93
2022-11-27T22:56:48.991Z,4.98
2022-11-27T22:59:32.267Z,4.92
2022-11-27T23:02:02.477Z,4.91
2022-11-27T23:04:31.212Z,4.90
2022-11-27T23:07:01.555Z,4.85
2022-11-27T23:09:30.813Z,4.79
2022-11-27T23:11:59.831Z,4.79
2022-11-27T23:14:28.821Z,4.77
2022-11-27T23:16:57.346Z,4.70
2022-11-27T23:19:25.968Z,4.71
2022-11-27T23:21:54.485Z,4.63
2022-11-27T23:24:24.615Z,4.67
2022-11-27T23:26:53.111Z,4.63
2022-11-27T23:29:21.661Z,4.64
2022-11-27T23:31:50.387Z,4.67
2022-11-27T23:34:19.010Z,4.59
2022-11-27T23:36:47.527Z,4.71
2022-11-27T23:39:16.121Z,4.68
2022-11-27T23:41:48.251Z,4.67
2022-11-27T23:44:16.840Z,4.70
2022-11-27T23:46:45.290Z,4.80
2022-11-27T23:49:13.762Z,4.73
2022-11-27T23:51:42.350Z,4.73
2022-11-27T23:54:12.284Z,4.60
2022-11-27T23:56:43.030Z,4.61
2022-11-27T23:59:13.088Z,4.59
